createdAt,value
2018-07-12T00:00:39.735Z,11.4
2018-07-12T00:01:39.648Z,11.4
2018-07-12T00:02:39.643Z,11.42
2018-07-12T00:03:39.648Z,11.43
2018-07-12T00:04:39.660Z,11.46
2018-07-12T00:05:39.692Z,11.41
2018-07-12T00:06:39.660Z,11.46
2018-07-12T00:07:39.671Z,11.57
2018-07-12T00:08:39.640Z,11.6
2018-07-12T00:09:39.644Z,11.62
2018-07-12T00:10:39.673Z,11.58
2018-07-12T00:11:39.632Z,11.7
2018-07-12T00:12:39.665Z,11.62
2018-07-12T00:13:39.663Z,11.71
2018-07-12T00:14:39.706Z,11.65
2018-07-12T00:15:39.641Z,11.7
2018-07-12T00:16:39.655Z,11.69
2018-07-12T00:17:39.672Z,11.76
2018-07-12T00:18:39.659Z,11.75
2018-07-12T00:19:39.688Z,11.8
2018-07-12T00:20:39.676Z,11.81
2018-07-12T00:21:39.707Z,11.8
2018-07-12T00:22:39.680Z,11.77
2018-07-12T00:23:39.630Z,11.73
2018-07-12T00:24:39.664Z,11.69
2018-07-12T00:25:39.661Z,11.69
2018-07-12T00:26:39.725Z,11.65
2018-07-12T00:27:39.656Z,11.63
2018-07-12T00:28:39.729Z,11.64
2018-07-12T00:29:39.651Z,11.71
2018-07-12T00:30:39.782Z,11.63
2018-07-12T00:31:39.771Z,11.68
2018-07-12T00:32:39.766Z,11.71
2018-07-12T00:33:39.934Z,11.79
2018-07-12T00:34:39.676Z,11.66
2018-07-12T00:35:39.687Z,11.74
2018-07-12T00:36:39.635Z,11.83
2018-07-12T00:37:39.663Z,11.85
2018-07-12T00:38:39.712Z,11.88
2018-07-12T00:39:39.659Z,11.83
2018-07-12T00:40:39.649Z,11.85
2018-07-12T00:41:39.707Z,11.81
2018-07-12T00:42:39.768Z,11.76
2018-07-12T00:43:39.664Z,11.62
2018-07-12T00:44:39.675Z,11.87
2018-07-12T00:45:39.674Z,11.74
2018-07-12T00:46:39.676Z,11.72
2018-07-12T00:47:39.705Z,11.67
2018-07-12T00:48:39.716Z,11.81
2018-07-12T00:49:39.671Z,11.73
2018-07-12T00:50:39.750Z,11.73
2018-07-12T00:51:39.718Z,11.7
2018-07-12T00:52:39.858Z,11.87
2018-07-12T00:53:39.662Z,11.73
2018-07-12T00:54:39.661Z,11.86
2018-07-12T00:55:39.717Z,11.84
2018-07-12T00:56:39.712Z,11.92
2018-07-12T00:57:39.726Z,11.83
2018-07-12T00:58:39.726Z,11.81
2018-07-12T00:59:39.710Z,11.91
2018-07-12T01:00:39.740Z,11.98
2018-07-12T01:01:39.693Z,11.93
2018-07-12T01:02:39.704Z,11.98
2018-07-12T01:03:39.885Z,11.98
2018-07-12T01:04:39.686Z,12
2018-07-12T01:05:39.802Z,11.97
2018-07-12T01:06:39.758Z,11.85
2018-07-12T01:07:39.709Z,12.01
2018-07-12T01:08:39.760Z,11.98
2018-07-12T01:09:39.691Z,12.01
2018-07-12T01:10:39.686Z,11.98
2018-07-12T01:11:39.725Z,11.97
2018-07-12T01:12:39.720Z,11.99
2018-07-12T01:13:39.754Z,12.02
2018-07-12T01:14:39.886Z,12.03
2018-07-12T01:15:39.862Z,11.92
2018-07-12T01:16:39.992Z,11.83
2018-07-12T01:17:40.042Z,12
2018-07-12T01:18:39.766Z,11.92
2018-07-12T01:19:39.788Z,11.94
2018-07-12T01:20:39.900Z,11.99
2018-07-12T01:21:39.725Z,11.95
2018-07-12T01:22:39.878Z,11.95
2018-07-12T01:23:39.745Z,11.86
2018-07-12T01:24:39.853Z,11.83
2018-07-12T01:25:39.754Z,11.81
2018-07-12T01:26:39.742Z,11.88
2018-07-12T01:27:39.697Z,11.89
2018-07-12T01:28:39.741Z,11.9
2018-07-12T01:29:39.813Z,11.82
2018-07-12T01:30:39.824Z,11.72
2018-07-12T01:31:39.845Z,11.94
2018-07-12T01:32:39.872Z,11.92
2018-07-12T01:33:39.787Z,11.99
2018-07-12T01:34:39.835Z,11.94
2018-07-12T01:35:39.820Z,11.9
2018-07-12T01:36:39.733Z,11.87
2018-07-12T01:37:39.750Z,11.95
2018-07-12T01:38:39.702Z,11.97
2018-07-12T01:39:39.707Z,11.87
2018-07-12T01:40:39.745Z,11.98
2018-07-12T01:41:39.751Z,11.87
2018-07-12T01:42:39.683Z,12
2018-07-12T01:43:39.984Z,12
2018-07-12T01:44:39.764Z,11.93
2018-07-12T01:45:39.715Z,12.01
2018-07-12T01:46:39.804Z,11.99
2018-07-12T01:47:39.715Z,11.94
2018-07-12T01:48:39.765Z,11.99
2018-07-12T01:49:39.730Z,11.94
2018-07-12T01:50:39.718Z,12.07
2018-07-12T01:51:39.772Z,12.07
2018-07-12T01:52:39.773Z,12.11
2018-07-12T01:53:39.731Z,12.11
2018-07-12T01:54:39.743Z,12.01
2018-07-12T01:55:39.828Z,12.17
2018-07-12T01:56:39.746Z,12.04
2018-07-12T01:57:39.744Z,12.09
2018-07-12T01:58:39.996Z,12.11
2018-07-12T01:59:39.725Z,12.06
2018-07-12T02:00:40.398Z,12.15
2018-07-12T02:01:39.904Z,12.2
2018-07-12T02:02:39.722Z,11.95
2018-07-12T02:03:39.737Z,12.09
2018-07-12T02:04:39.784Z,12.12
2018-07-12T02:05:39.800Z,12.12
2018-07-12T02:06:39.723Z,12.08
2018-07-12T02:07:39.732Z,12.1
2018-07-12T02:08:39.751Z,12.19
2018-07-12T02:09:39.819Z,12.2
2018-07-12T02:10:39.787Z,12.21
2018-07-12T02:11:39.742Z,12.15
2018-07-12T02:12:39.752Z,12.23
2018-07-12T02:13:39.921Z,12.26
2018-07-12T02:14:39.752Z,12.29
2018-07-12T02:15:39.760Z,12.32
2018-07-12T02:16:39.739Z,12.31
2018-07-12T02:17:39.736Z,12.3
2018-07-12T02:18:39.785Z,12.23
2018-07-12T02:19:39.756Z,12.15
2018-07-12T02:20:39.725Z,12.18
2018-07-12T02:21:39.731Z,12.18
2018-07-12T02:22:39.770Z,12.21
2018-07-12T02:23:39.742Z,12.13
2018-07-12T02:24:39.742Z,12.18
2018-07-12T02:25:39.772Z,12.13
2018-07-12T02:26:39.762Z,12.09
2018-07-12T02:27:40.606Z,12.2
2018-07-12T02:28:39.808Z,12.16
2018-07-12T02:29:39.802Z,12.08
2018-07-12T02:30:39.824Z,12.11
2018-07-12T02:31:39.756Z,12.12
2018-07-12T02:32:39.780Z,12.18
2018-07-12T02:33:39.769Z,12.24
2018-07-12T02:34:39.782Z,12.24
2018-07-12T02:35:39.745Z,12.23
2018-07-12T02:36:39.795Z,12.18
2018-07-12T02:37:39.754Z,12.18
2018-07-12T02:38:39.750Z,12.11
2018-07-12T02:39:39.812Z,12.22
2018-07-12T02:40:39.823Z,12.24
2018-07-12T02:41:39.758Z,12.27
2018-07-12T02:42:39.757Z,12.31
2018-07-12T02:43:39.771Z,12.2
2018-07-12T02:44:39.813Z,12.48
2018-07-12T02:45:39.776Z,12.43
2018-07-12T02:46:39.784Z,12.41
2018-07-12T02:47:39.742Z,12.46
2018-07-12T02:48:39.741Z,12.53
2018-07-12T02:49:39.776Z,12.51
2018-07-12T02:50:39.789Z,12.54
2018-07-12T02:51:39.754Z,12.61
2018-07-12T02:52:39.768Z,12.7
2018-07-12T02:53:39.768Z,12.76
2018-07-12T02:54:39.741Z,12.79
2018-07-12T02:55:39.734Z,12.72
2018-07-12T02:56:39.794Z,12.82
2018-07-12T02:57:39.782Z,12.74
2018-07-12T02:58:39.764Z,12.84
2018-07-12T02:59:39.732Z,12.87
2018-07-12T03:00:39.759Z,12.95
2018-07-12T03:01:39.870Z,12.92
2018-07-12T03:02:39.836Z,12.91
2018-07-12T03:03:39.788Z,13.03
2018-07-12T03:04:39.971Z,13.06
2018-07-12T03:05:39.757Z,13.08
2018-07-12T03:06:39.903Z,12.98
2018-07-12T03:07:39.763Z,13.08
2018-07-12T03:08:39.959Z,13.11
2018-07-12T03:09:39.957Z,13.1
2018-07-12T03:10:39.846Z,13.03
2018-07-12T03:11:39.824Z,13.14
2018-07-12T03:12:39.897Z,13.1
2018-07-12T03:13:40.279Z,13.11
2018-07-12T03:14:40.225Z,13.09
2018-07-12T03:15:39.754Z,13.06
2018-07-12T03:16:39.989Z,13.11
2018-07-12T03:17:39.832Z,13.35
2018-07-12T03:18:39.821Z,13.51
2018-07-12T03:19:39.773Z,13.47
2018-07-12T03:20:39.795Z,13.59
2018-07-12T03:21:39.759Z,13.55
2018-07-12T03:22:40.092Z,13.53
2018-07-12T03:23:39.813Z,13.33
2018-07-12T03:24:39.839Z,13.58
2018-07-12T03:25:39.789Z,13.69
2018-07-12T03:26:40.049Z,13.7
2018-07-12T03:27:39.869Z,13.68
2018-07-12T03:28:39.876Z,13.63
2018-07-12T03:29:39.780Z,13.78
2018-07-12T03:30:39.787Z,13.85
2018-07-12T03:31:39.933Z,13.78
2018-07-12T03:32:39.795Z,13.8
2018-07-12T03:33:40.081Z,13.75
2018-07-12T03:34:39.757Z,13.81
2018-07-12T03:35:39.824Z,13.83
2018-07-12T03:36:39.840Z,13.89
2018-07-12T03:37:39.771Z,13.86
2018-07-12T03:38:39.826Z,13.88
2018-07-12T03:39:39.828Z,13.91
2018-07-12T03:40:40.020Z,13.85
2018-07-12T03:41:39.765Z,13.9
2018-07-12T03:42:39.817Z,13.92
2018-07-12T03:43:39.772Z,13.93
2018-07-12T03:44:39.828Z,13.9
2018-07-12T03:45:39.783Z,13.92
2018-07-12T03:46:39.762Z,13.95
2018-07-12T03:47:40.073Z,13.97
2018-07-12T03:48:40.381Z,13.87
2018-07-12T03:49:39.806Z,13.97
2018-07-12T03:50:39.816Z,14
2018-07-12T03:51:39.826Z,13.96
2018-07-12T03:52:39.818Z,13.98
2018-07-12T03:53:39.786Z,14.01
2018-07-12T03:54:39.764Z,14.02
2018-07-12T03:55:39.901Z,13.96
2018-07-12T03:56:39.883Z,13.96
2018-07-12T03:57:39.893Z,13.91
2018-07-12T03:58:39.799Z,13.81
2018-07-12T03:59:39.796Z,14.02
2018-07-12T04:00:39.795Z,14.06
2018-07-12T04:01:39.788Z,14.02
2018-07-12T04:02:39.844Z,14.04
2018-07-12T04:03:40.227Z,14.05
2018-07-12T04:04:40.989Z,14.06
2018-07-12T04:05:39.774Z,13.97
2018-07-12T04:06:39.793Z,14.07
2018-07-12T04:07:39.838Z,14.06
2018-07-12T04:08:39.791Z,14.04
2018-07-12T04:09:39.804Z,14.08
2018-07-12T04:10:39.812Z,14.07
2018-07-12T04:11:39.841Z,14.04
2018-07-12T04:12:39.798Z,14.07
2018-07-12T04:13:39.793Z,14.05
2018-07-12T04:14:39.951Z,14.09
2018-07-12T04:15:40.064Z,14.06
2018-07-12T04:16:39.802Z,14.12
2018-07-12T04:17:39.848Z,14.07
2018-07-12T04:18:40.086Z,14.05
2018-07-12T04:19:39.823Z,14.08
2018-07-12T04:20:39.926Z,14.11
2018-07-12T04:21:39.805Z,14.15
2018-07-12T04:22:39.823Z,14.07
2018-07-12T04:23:39.835Z,14.17
2018-07-12T04:24:39.877Z,14.11
2018-07-12T04:25:39.910Z,14.07
2018-07-12T04:26:39.810Z,14.1
2018-07-12T04:27:39.838Z,14.06
2018-07-12T04:28:39.970Z,14.06
2018-07-12T04:29:40.010Z,13.89
2018-07-12T04:30:41.163Z,14.08
2018-07-12T04:31:39.996Z,14.12
2018-07-12T04:32:40.107Z,14.05
2018-07-12T04:33:39.831Z,14.05
2018-07-12T04:34:40.448Z,13.98
2018-07-12T04:35:39.824Z,14.08
2018-07-12T04:36:40.411Z,14.12
2018-07-12T04:37:40.365Z,14.08
2018-07-12T04:38:40.203Z,14.11
2018-07-12T04:39:39.825Z,14.14
2018-07-12T04:40:39.919Z,14.12
2018-07-12T04:41:39.828Z,14.18
2018-07-12T04:42:39.817Z,14.2
2018-07-12T04:43:39.862Z,14.24
2018-07-12T04:44:39.827Z,14.25
2018-07-12T04:45:39.850Z,14.24
2018-07-12T04:46:39.824Z,14.27
2018-07-12T04:47:39.803Z,14.19
2018-07-12T04:48:39.819Z,14.26
2018-07-12T04:49:39.827Z,14.23
2018-07-12T04:50:39.863Z,14.27
2018-07-12T04:51:39.976Z,14.3
2018-07-12T04:52:39.862Z,14.29
2018-07-12T04:53:39.841Z,14.25
2018-07-12T04:54:39.935Z,14.31
2018-07-12T04:55:39.856Z,14.35
2018-07-12T04:56:39.886Z,14.36
2018-07-12T04:57:39.845Z,14.36
2018-07-12T04:58:40.117Z,14.4
2018-07-12T04:59:39.869Z,14.35
2018-07-12T05:00:39.841Z,14.37
2018-07-12T05:01:39.997Z,14.36
2018-07-12T05:02:39.845Z,14.41
2018-07-12T05:03:39.831Z,14.45
2018-07-12T05:04:39.821Z,14.41
2018-07-12T05:05:40.160Z,14.39
2018-07-12T05:06:39.809Z,14.43
2018-07-12T05:07:39.850Z,14.39
2018-07-12T05:08:39.910Z,14.43
2018-07-12T05:09:39.875Z,14.45
2018-07-12T05:10:39.835Z,14.45
2018-07-12T05:11:39.816Z,14.44
2018-07-12T05:12:39.853Z,14.45
2018-07-12T05:13:39.850Z,14.43
2018-07-12T05:14:39.862Z,14.46
2018-07-12T05:15:39.924Z,14.33
2018-07-12T05:16:39.822Z,14.35
2018-07-12T05:17:39.845Z,14.43
2018-07-12T05:18:39.865Z,14.45
2018-07-12T05:19:39.883Z,14.45
2018-07-12T05:20:39.836Z,14.46
2018-07-12T05:21:39.858Z,14.46
2018-07-12T05:22:39.877Z,14.41
2018-07-12T05:23:39.874Z,14.46
2018-07-12T05:24:39.832Z,14.46
2018-07-12T05:25:39.847Z,14.49
2018-07-12T05:26:39.858Z,14.47
2018-07-12T05:27:39.856Z,14.47
2018-07-12T05:28:39.838Z,14.52
2018-07-12T05:29:39.864Z,14.51
2018-07-12T05:30:40.085Z,14.53
2018-07-12T05:31:39.849Z,14.53
2018-07-12T05:32:39.885Z,14.49
2018-07-12T05:33:39.879Z,14.52
2018-07-12T05:34:39.878Z,14.52
2018-07-12T05:35:39.858Z,14.54
2018-07-12T05:36:39.843Z,14.5
2018-07-12T05:37:39.867Z,14.47
2018-07-12T05:38:40.078Z,14.4
2018-07-12T05:39:40.012Z,14.58
2018-07-12T05:40:39.890Z,14.62
2018-07-12T05:41:39.868Z,14.6
2018-07-12T05:42:40.137Z,14.58
2018-07-12T05:43:39.850Z,14.62
2018-07-12T05:44:39.836Z,14.59
2018-07-12T05:45:39.909Z,14.61
2018-07-12T05:46:40.319Z,14.61
2018-07-12T05:47:39.889Z,14.61
2018-07-12T05:48:39.853Z,14.6
2018-07-12T05:49:39.872Z,14.64
2018-07-12T05:50:39.938Z,14.66
2018-07-12T05:51:40.019Z,14.63
2018-07-12T05:52:39.859Z,14.64
2018-07-12T05:53:40.020Z,14.63
2018-07-12T05:54:40.014Z,14.67
2018-07-12T05:55:39.846Z,14.67
2018-07-12T05:56:40.146Z,14.67
2018-07-12T05:57:39.864Z,14.67
2018-07-12T05:58:39.870Z,14.66
2018-07-12T05:59:39.987Z,14.7
2018-07-12T06:00:39.895Z,14.65
2018-07-12T06:01:39.895Z,14.74
2018-07-12T06:02:39.861Z,14.7
2018-07-12T06:03:40.085Z,14.67
2018-07-12T06:04:40.010Z,14.61
2018-07-12T06:05:39.931Z,14.7
2018-07-12T06:06:39.914Z,14.66
2018-07-12T06:07:39.963Z,14.74
2018-07-12T06:08:39.936Z,14.74
2018-07-12T06:09:39.869Z,14.75
2018-07-12T06:10:39.939Z,14.76
2018-07-12T06:11:39.989Z,14.81
2018-07-12T06:12:39.884Z,14.84
2018-07-12T06:13:39.923Z,14.82
2018-07-12T06:14:39.885Z,14.78
2018-07-12T06:15:40.015Z,14.85
2018-07-12T06:16:39.880Z,14.86
2018-07-12T06:17:40.292Z,14.8
2018-07-12T06:18:40.106Z,14.79
2018-07-12T06:19:39.853Z,14.74
2018-07-12T06:20:40.021Z,14.73
2018-07-12T06:21:40.220Z,14.71
2018-07-12T06:22:39.935Z,14.64
2018-07-12T06:23:39.905Z,14.66
2018-07-12T06:24:40.252Z,14.68
2018-07-12T06:25:40.060Z,14.64
2018-07-12T06:26:39.862Z,14.64
2018-07-12T06:27:40.034Z,14.61
2018-07-12T06:28:40.079Z,14.66
2018-07-12T06:29:39.983Z,14.69
2018-07-12T06:30:40.095Z,14.65
2018-07-12T06:31:39.983Z,14.68
2018-07-12T06:32:39.926Z,14.65
2018-07-12T06:33:39.873Z,14.51
2018-07-12T06:34:39.870Z,14.55
2018-07-12T06:35:40.022Z,14.6
2018-07-12T06:36:40.070Z,14.74
2018-07-12T06:37:39.982Z,14.58
2018-07-12T06:38:39.927Z,14.57
2018-07-12T06:39:39.901Z,14.71
2018-07-12T06:40:39.955Z,14.79
2018-07-12T06:41:40.069Z,14.75
2018-07-12T06:42:40.518Z,14.79
2018-07-12T06:43:39.866Z,14.73
2018-07-12T06:44:39.974Z,14.76
2018-07-12T06:45:39.892Z,14.7
2018-07-12T06:46:39.899Z,14.7
2018-07-12T06:47:39.889Z,14.64
2018-07-12T06:48:39.931Z,14.63
2018-07-12T06:49:39.879Z,14.7
2018-07-12T06:50:40.061Z,14.63
2018-07-12T06:51:39.990Z,14.65
2018-07-12T06:52:39.935Z,14.58
2018-07-12T06:53:39.945Z,14.57
2018-07-12T06:54:40.218Z,14.54
2018-07-12T06:55:39.910Z,14.56
2018-07-12T06:56:39.916Z,14.56
2018-07-12T06:57:40.039Z,14.6
2018-07-12T06:58:39.903Z,14.63
2018-07-12T06:59:39.988Z,14.55
2018-07-12T07:00:40.131Z,14.49
2018-07-12T07:01:39.890Z,14.37
2018-07-12T07:02:39.899Z,14.32
2018-07-12T07:03:39.905Z,14.37
2018-07-12T07:04:39.969Z,14.38
2018-07-12T07:05:39.892Z,14.44
2018-07-12T07:06:40.041Z,14.43
2018-07-12T07:07:39.976Z,14.38
2018-07-12T07:08:40.024Z,14.38
2018-07-12T07:09:40.739Z,14.45
2018-07-12T07:10:39.964Z,14.39
2018-07-12T07:11:40.016Z,14.05
2018-07-12T07:12:40.033Z,14.07
2018-07-12T07:13:40.000Z,14.1
2018-07-12T07:14:40.280Z,14.23
2018-07-12T07:15:39.972Z,13.95
2018-07-12T07:16:39.927Z,13.58
2018-07-12T07:17:39.900Z,13.69
2018-07-12T07:18:40.021Z,13.5
2018-07-12T07:19:40.201Z,13.52
2018-07-12T07:20:39.983Z,13.65
2018-07-12T07:21:40.088Z,13.17
2018-07-12T07:22:40.001Z,13.15
2018-07-12T07:23:40.027Z,12.95
2018-07-12T07:24:39.961Z,13.1
2018-07-12T07:25:40.517Z,12.84
2018-07-12T07:26:39.969Z,13.03
2018-07-12T07:27:40.017Z,12.97
2018-07-12T07:28:39.999Z,12.94
2018-07-12T07:29:39.968Z,12.96
2018-07-12T07:30:39.925Z,13.07
2018-07-12T07:31:40.272Z,13.06
2018-07-12T07:32:40.056Z,13.05
2018-07-12T07:33:39.992Z,12.83
2018-07-12T07:34:40.496Z,12.77
2018-07-12T07:35:40.251Z,12.73
2018-07-12T07:36:40.055Z,12.71
2018-07-12T07:37:40.065Z,12.95
2018-07-12T07:38:39.979Z,12.94
2018-07-12T07:39:40.231Z,13.03
2018-07-12T07:40:40.027Z,13
2018-07-12T07:41:39.995Z,13.01
2018-07-12T07:42:39.946Z,13.24
2018-07-12T07:43:39.993Z,13.19
2018-07-12T07:44:39.975Z,13.09
2018-07-12T07:45:40.025Z,13.06
2018-07-12T07:46:40.021Z,13.04
2018-07-12T07:47:39.997Z,13.09
2018-07-12T07:48:40.053Z,12.99
2018-07-12T07:49:40.082Z,12.98
2018-07-12T07:50:39.980Z,13.06
2018-07-12T07:51:39.954Z,13.19
2018-07-12T07:52:40.024Z,13.25
2018-07-12T07:53:40.089Z,13.14
2018-07-12T07:54:39.930Z,13.2
2018-07-12T07:55:40.019Z,13.2
2018-07-12T07:56:40.032Z,13.32
2018-07-12T07:57:40.049Z,13.31
2018-07-12T07:58:40.072Z,13.32
2018-07-12T07:59:39.960Z,13.31
2018-07-12T08:00:39.962Z,13.1
2018-07-12T08:01:40.378Z,12.8
2018-07-12T08:02:39.987Z,12.71
2018-07-12T08:03:39.935Z,12.61
2018-07-12T08:04:39.989Z,12.58
2018-07-12T08:05:39.995Z,12.58
2018-07-12T08:06:39.983Z,12.74
2018-07-12T08:07:40.005Z,12.7
2018-07-12T08:08:39.959Z,12.5
2018-07-12T08:09:39.965Z,12.59
2018-07-12T08:10:39.929Z,12.71
2018-07-12T08:11:39.958Z,12.45
2018-07-12T08:12:39.941Z,12.54
2018-07-12T08:13:39.956Z,12.26
2018-07-12T08:14:39.974Z,12.6
2018-07-12T08:15:39.952Z,12.41
2018-07-12T08:16:39.991Z,12.5
2018-07-12T08:17:39.948Z,12.28
2018-07-12T08:18:39.934Z,12.34
2018-07-12T08:19:40.075Z,12.37
2018-07-12T08:20:40.055Z,12.28
2018-07-12T08:21:39.944Z,12.59
2018-07-12T08:22:39.938Z,12.65
2018-07-12T08:23:40.038Z,12.81
2018-07-12T08:24:40.113Z,12.94
2018-07-12T08:25:39.958Z,12.84
2018-07-12T08:26:39.988Z,12.81
2018-07-12T08:27:40.051Z,12.83
2018-07-12T08:28:40.010Z,12.88
2018-07-12T08:29:40.065Z,12.9
2018-07-12T08:30:40.010Z,12.86
2018-07-12T08:31:40.023Z,12.87
2018-07-12T08:32:40.152Z,12.89
2018-07-12T08:33:40.040Z,13.03
2018-07-12T08:34:40.088Z,13.15
2018-07-12T08:35:39.984Z,13.01
2018-07-12T08:36:40.101Z,13.05
2018-07-12T08:37:40.101Z,13.11
2018-07-12T08:38:39.990Z,13
2018-07-12T08:39:40.114Z,13.07
2018-07-12T08:40:40.623Z,13.21
2018-07-12T08:41:40.186Z,13.17
2018-07-12T08:42:40.300Z,13.07
2018-07-12T08:43:40.116Z,12.97
2018-07-12T08:44:40.174Z,13.02
2018-07-12T08:45:40.254Z,13.01
2018-07-12T08:46:40.149Z,13.01
2018-07-12T08:47:40.077Z,12.99
2018-07-12T08:48:40.078Z,12.87
2018-07-12T08:49:40.098Z,12.84
2018-07-12T08:50:40.075Z,12.87
2018-07-12T08:51:40.074Z,12.83
2018-07-12T08:52:40.031Z,12.92
2018-07-12T08:53:40.032Z,12.93
2018-07-12T08:54:40.397Z,13
2018-07-12T08:55:39.959Z,12.89
2018-07-12T08:56:40.053Z,13.02
2018-07-12T08:57:39.999Z,13.02
2018-07-12T08:58:40.146Z,12.93
2018-07-12T08:59:40.073Z,13.08
2018-07-12T09:00:40.225Z,12.95
2018-07-12T09:01:40.047Z,13
2018-07-12T09:02:40.473Z,13.02
2018-07-12T09:03:40.143Z,12.87
2018-07-12T09:04:40.193Z,12.94
2018-07-12T09:05:40.147Z,12.79
2018-07-12T09:06:40.051Z,12.85
2018-07-12T09:07:40.039Z,13.09
2018-07-12T09:08:40.074Z,13.05
2018-07-12T09:09:40.010Z,13.04
2018-07-12T09:10:40.036Z,12.82
2018-07-12T09:11:40.058Z,12.98
2018-07-12T09:12:40.214Z,12.87
2018-07-12T09:13:39.996Z,12.87
2018-07-12T09:14:40.036Z,12.87
2018-07-12T09:15:40.326Z,12.82
2018-07-12T09:16:39.986Z,12.78
2018-07-12T09:17:39.987Z,12.79
2018-07-12T09:18:40.014Z,12.93
2018-07-12T09:19:40.013Z,12.96
2018-07-12T09:20:40.105Z,13.03
2018-07-12T09:21:40.227Z,13.02
2018-07-12T09:22:40.033Z,12.9
2018-07-12T09:23:40.007Z,12.87
2018-07-12T09:24:39.965Z,12.99
2018-07-12T09:25:40.024Z,12.74
2018-07-12T09:26:40.075Z,12.81
2018-07-12T09:27:40.007Z,12.87
2018-07-12T09:28:39.974Z,13.03
2018-07-12T09:29:40.049Z,12.91
2018-07-12T09:30:40.191Z,12.76
2018-07-12T09:31:40.022Z,12.85
2018-07-12T09:32:40.055Z,12.93
2018-07-12T09:33:40.070Z,12.9
2018-07-12T09:34:40.019Z,12.86
2018-07-12T09:35:40.061Z,12.95
2018-07-12T09:36:40.171Z,13
2018-07-12T09:37:39.995Z,12.84
2018-07-12T09:38:40.120Z,12.73
2018-07-12T09:39:40.352Z,12.78
2018-07-12T09:40:40.164Z,12.95
2018-07-12T09:41:40.002Z,12.92
2018-07-12T09:42:40.140Z,13.05
2018-07-12T09:43:40.029Z,13.01
2018-07-12T09:44:40.173Z,12.82
2018-07-12T09:45:40.015Z,12.74
2018-07-12T09:46:40.010Z,12.9
2018-07-12T09:47:40.229Z,12.92
2018-07-12T09:48:40.080Z,12.96
2018-07-12T09:49:40.025Z,13.09
2018-07-12T09:50:40.069Z,12.99
2018-07-12T09:51:40.080Z,12.92
2018-07-12T09:52:40.099Z,12.76
2018-07-12T09:53:40.020Z,12.7
2018-07-12T09:54:40.091Z,12.58
2018-07-12T09:55:40.978Z,12.7
2018-07-12T09:56:41.039Z,12.69
2018-07-12T09:57:42.323Z,12.72
2018-07-12T09:58:40.087Z,12.69
2018-07-12T09:59:40.016Z,12.53
2018-07-12T10:00:40.235Z,12.63
2018-07-12T10:01:40.072Z,12.74
2018-07-12T10:02:40.024Z,12.75
2018-07-12T10:03:40.031Z,12.64
2018-07-12T10:04:40.601Z,12.68
2018-07-12T10:05:40.533Z,12.59
2018-07-12T10:06:40.217Z,12.75
2018-07-12T10:07:40.053Z,12.66
2018-07-12T10:08:40.209Z,12.71
2018-07-12T10:09:40.072Z,12.69
2018-07-12T10:10:40.358Z,12.77
2018-07-12T10:11:40.136Z,12.8
2018-07-12T10:12:40.041Z,12.64
2018-07-12T10:13:40.063Z,12.77
2018-07-12T10:14:40.373Z,12.68
2018-07-12T10:15:40.040Z,12.81
2018-07-12T10:16:40.003Z,12.71
2018-07-12T10:17:40.059Z,12.55
2018-07-12T10:18:40.110Z,12.55
2018-07-12T10:19:40.020Z,12.51
2018-07-12T10:20:40.031Z,12.5
2018-07-12T10:21:40.055Z,12.62
2018-07-12T10:22:40.031Z,12.61
2018-07-12T10:23:40.710Z,12.74
2018-07-12T10:24:40.077Z,12.67
2018-07-12T10:25:40.058Z,12.74
2018-07-12T10:26:40.059Z,12.68
2018-07-12T10:27:40.038Z,12.78
2018-07-12T10:28:40.016Z,12.68
2018-07-12T10:29:40.283Z,12.71
2018-07-12T10:30:40.291Z,12.74
2018-07-12T10:31:40.061Z,12.79
2018-07-12T10:32:40.050Z,12.86
2018-07-12T10:33:40.040Z,12.89
2018-07-12T10:34:40.021Z,13.01
2018-07-12T10:35:40.054Z,12.85
2018-07-12T10:36:40.043Z,12.99
2018-07-12T10:37:40.045Z,12.9
2018-07-12T10:38:40.043Z,13.01
2018-07-12T10:39:40.060Z,12.81
2018-07-12T10:40:40.034Z,13.01
2018-07-12T10:41:40.050Z,13.05
2018-07-12T10:42:40.073Z,12.94
2018-07-12T10:43:40.055Z,12.96
2018-07-12T10:44:40.041Z,12.94
2018-07-12T10:45:40.150Z,12.83
2018-07-12T10:46:40.221Z,12.92
2018-07-12T10:47:40.039Z,13.09
2018-07-12T10:48:40.045Z,13.08
2018-07-12T10:49:40.214Z,12.94
2018-07-12T10:50:40.067Z,13.05
2018-07-12T10:51:40.051Z,13.05
2018-07-12T10:52:40.120Z,12.75
2018-07-12T10:53:40.092Z,13.01
2018-07-12T10:54:40.426Z,13.06
2018-07-12T10:55:40.155Z,12.91
2018-07-12T10:56:40.345Z,12.77
2018-07-12T10:57:40.060Z,12.79
2018-07-12T10:58:40.115Z,12.71
2018-07-12T10:59:40.077Z,12.61
2018-07-12T11:00:40.336Z,12.76
2018-07-12T11:01:40.167Z,12.74
2018-07-12T11:02:40.319Z,12.69
2018-07-12T11:03:40.070Z,12.71
2018-07-12T11:04:40.534Z,12.7
2018-07-12T11:05:40.456Z,12.56
2018-07-12T11:06:40.125Z,12.38
2018-07-12T11:07:40.123Z,12.21
2018-07-12T11:08:40.134Z,12
2018-07-12T11:09:40.112Z,11.87
2018-07-12T11:10:40.161Z,11.96
2018-07-12T11:11:40.336Z,12.06
2018-07-12T11:12:40.136Z,11.95
2018-07-12T11:13:40.105Z,12.02
2018-07-12T11:14:40.315Z,11.91
2018-07-12T11:15:40.331Z,12.02
2018-07-12T11:16:40.204Z,11.9
2018-07-12T11:17:40.172Z,12.04
2018-07-12T11:18:40.143Z,12.04
2018-07-12T11:19:40.331Z,12.55
2018-07-12T11:20:40.230Z,12.58
2018-07-12T11:21:40.121Z,12.84
2018-07-12T11:22:40.565Z,12.65
2018-07-12T11:23:40.257Z,12.64
2018-07-12T11:24:40.358Z,12.67
2018-07-12T11:25:40.159Z,12.64
2018-07-12T11:26:40.266Z,12.47
2018-07-12T11:27:40.379Z,12.49
2018-07-12T11:28:40.293Z,12.41
2018-07-12T11:29:40.320Z,12.28
2018-07-12T11:30:40.390Z,12.09
2018-07-12T11:31:40.298Z,12.07
2018-07-12T11:32:41.490Z,12.36
2018-07-12T11:33:40.227Z,12.36
2018-07-12T11:34:40.134Z,11.99
2018-07-12T11:35:40.143Z,12.23
2018-07-12T11:36:41.397Z,12.14
2018-07-12T11:37:40.590Z,11.8
2018-07-12T11:38:40.192Z,11.93
2018-07-12T11:39:40.288Z,12.03
2018-07-12T11:40:40.163Z,11.84
2018-07-12T11:41:40.592Z,11.89
2018-07-12T11:42:40.378Z,11.74
2018-07-12T11:43:40.358Z,11.83
2018-07-12T11:44:41.397Z,12.14
2018-07-12T11:45:40.110Z,11.72
2018-07-12T11:46:40.211Z,11.86
2018-07-12T11:47:40.103Z,11.89
2018-07-12T11:48:40.236Z,11.96
2018-07-12T11:49:40.062Z,11.94
2018-07-12T11:50:40.098Z,12.17
2018-07-12T11:51:40.303Z,12.24
2018-07-12T11:52:40.562Z,12.17
2018-07-12T11:53:40.171Z,12.13
2018-07-12T11:54:40.252Z,12.05
2018-07-12T11:55:40.204Z,12.08
2018-07-12T11:56:40.110Z,12.1
2018-07-12T11:57:40.193Z,11.95
2018-07-12T11:58:40.123Z,12
2018-07-12T11:59:40.129Z,11.8
2018-07-12T12:00:40.198Z,11.98
2018-07-12T12:01:40.662Z,12.02
2018-07-12T12:02:40.146Z,12.07
2018-07-12T12:03:40.145Z,11.91
2018-07-12T12:04:40.306Z,11.97
2018-07-12T12:05:40.164Z,11.85
2018-07-12T12:06:40.160Z,11.82
2018-07-12T12:07:40.198Z,11.97
2018-07-12T12:08:40.341Z,12.13
2018-07-12T12:09:40.187Z,12.01
2018-07-12T12:10:40.997Z,12.12
2018-07-12T12:11:40.139Z,12.02
2018-07-12T12:12:40.174Z,12.05
2018-07-12T12:13:40.417Z,12.03
2018-07-12T12:14:40.123Z,11.99
2018-07-12T12:15:40.149Z,12.08
2018-07-12T12:16:40.178Z,12.14
2018-07-12T12:17:40.136Z,12.23
2018-07-12T12:18:40.148Z,12.31
2018-07-12T12:19:40.129Z,12.11
2018-07-12T12:20:40.316Z,12.02
2018-07-12T12:21:40.106Z,12.08
2018-07-12T12:22:40.251Z,12.18
2018-07-12T12:23:40.127Z,12.07
2018-07-12T12:24:40.333Z,12.05
2018-07-12T12:25:40.124Z,12.15
2018-07-12T12:26:40.141Z,12.15
2018-07-12T12:27:40.196Z,12.29
2018-07-12T12:28:40.298Z,12.23
2018-07-12T12:29:40.139Z,12.04
2018-07-12T12:30:40.815Z,11.89
2018-07-12T12:31:40.177Z,12.06
2018-07-12T12:32:40.232Z,11.87
2018-07-12T12:33:40.294Z,11.81
2018-07-12T12:34:40.444Z,11.7
2018-07-12T12:35:40.140Z,11.38
2018-07-12T12:36:40.256Z,11.22
2018-07-12T12:37:40.337Z,11.19
2018-07-12T12:38:40.224Z,11.18
2018-07-12T12:39:40.140Z,11.16
2018-07-12T12:40:40.149Z,10.97
2018-07-12T12:41:40.184Z,11.31
2018-07-12T12:42:40.265Z,11.61
2018-07-12T12:43:40.207Z,11.61
2018-07-12T12:44:40.406Z,11.58
2018-07-12T12:45:40.157Z,11.63
2018-07-12T12:46:40.179Z,11.51
2018-07-12T12:47:40.184Z,11.55
2018-07-12T12:48:40.145Z,11.7
2018-07-12T12:49:40.181Z,11.77
2018-07-12T12:50:40.162Z,11.84
2018-07-12T12:51:40.169Z,11.62
2018-07-12T12:52:40.200Z,11.76
2018-07-12T12:53:40.154Z,11.81
2018-07-12T12:54:40.233Z,11.59
2018-07-12T12:55:40.138Z,11.7
2018-07-12T12:56:40.182Z,11.64